sensor_id;sensor_type;location;lat;lon;timestamp;temperature;humidity
12839;DHT22;6486;51.034;5.262;2023-05-10T00:00:41;15.70;85.90
12839;DHT22;6486;51.034;5.262;2023-05-10T00:03:07;15.80;85.90
12839;DHT22;6486;51.034;5.262;2023-05-10T00:05:33;15.80;85.90
12839;DHT22;6486;51.034;5.262;2023-05-10T00:07:58;15.80;85.80
12839;DHT22;6486;51.034;5.262;2023-05-10T00:10:24;15.80;85.70
12839;DHT22;6486;51.034;5.262;2023-05-10T00:12:50;15.80;85.70
12839;DHT22;6486;51.034;5.262;2023-05-10T00:15:15;15.70;85.80
12839;DHT22;6486;51.034;5.262;2023-05-10T00:17:41;15.70;85.80
12839;DHT22;6486;51.034;5.262;2023-05-10T00:20:07;15.70;85.90
12839;DHT22;6486;51.034;5.262;2023-05-10T00:22:32;15.70;86.00
12839;DHT22;6486;51.034;5.262;2023-05-10T00:24:58;15.60;86.00
12839;DHT22;6486;51.034;5.262;2023-05-10T00:27:24;15.60;86.00
12839;DHT22;6486;51.034;5.262;2023-05-10T00:29:50;15.60;86.00
12839;DHT22;6486;51.034;5.262;2023-05-10T00:32:15;15.60;86.10
12839;DHT22;6486;51.034;5.262;2023-05-10T00:34:41;15.50;86.90
12839;DHT22;6486;51.034;5.262;2023-05-10T00:37:07;15.50;86.30
12839;DHT22;6486;51.034;5.262;2023-05-10T00:39:33;15.50;86.40
12839;DHT22;6486;51.034;5.262;2023-05-10T00:41:59;15.50;86.40
12839;DHT22;6486;51.034;5.262;2023-05-10T00:44:25;15.50;86.30
12839;DHT22;6486;51.034;5.262;2023-05-10T00:46:51;15.50;86.30
12839;DHT22;6486;51.034;5.262;2023-05-10T00:49:17;15.50;86.40
12839;DHT22;6486;51.034;5.262;2023-05-10T00:51:44;15.50;86.30
12839;DHT22;6486;51.034;5.262;2023-05-10T00:54:12;15.50;86.40
12839;DHT22;6486;51.034;5.262;2023-05-10T00:56:39;15.50;86.40
12839;DHT22;6486;51.034;5.262;2023-05-10T00:59:06;15.50;86.30
12839;DHT22;6486;51.034;5.262;2023-05-10T01:01:32;15.50;86.30
12839;DHT22;6486;51.034;5.262;2023-05-10T01:03:58;15.40;86.30
12839;DHT22;6486;51.034;5.262;2023-05-10T01:06:24;15.40;86.30
12839;DHT22;6486;51.034;5.262;2023-05-10T01:08:49;15.40;86.40
12839;DHT22;6486;51.034;5.262;2023-05-10T01:11:15;15.40;86.40
12839;DHT22;6486;51.034;5.262;2023-05-10T01:13:42;15.40;86.30
12839;DHT22;6486;51.034;5.262;2023-05-10T01:16:08;15.50;86.40
12839;DHT22;6486;51.034;5.262;2023-05-10T01:18:37;15.50;86.40
12839;DHT22;6486;51.034;5.262;2023-05-10T01:21:23;15.50;86.40
12839;DHT22;6486;51.034;5.262;2023-05-10T01:37:50;15.30;86.50
12839;DHT22;6486;51.034;5.262;2023-05-10T01:42:53;15.30;86.40
12839;DHT22;6486;51.034;5.262;2023-05-10T01:45:45;15.30;86.40
12839;DHT22;6486;51.034;5.262;2023-05-10T01:48:14;15.20;86.50
12839;DHT22;6486;51.034;5.262;2023-05-10T01:50:43;15.30;86.50
12839;DHT22;6486;51.034;5.262;2023-05-10T01:53:11;15.20;86.40
12839;DHT22;6486;51.034;5.262;2023-05-10T01:55:49;15.20;86.40
12839;DHT22;6486;51.034;5.262;2023-05-10T01:58:22;15.20;86.50
12839;DHT22;6486;51.034;5.262;2023-05-10T02:00:49;15.30;86.40
12839;DHT22;6486;51.034;5.262;2023-05-10T02:03:16;15.30;86.30
12839;DHT22;6486;51.034;5.262;2023-05-10T02:05:44;15.30;87.00
12839;DHT22;6486;51.034;5.262;2023-05-10T02:08:12;15.30;86.20
12839;DHT22;6486;51.034;5.262;2023-05-10T02:10:39;15.30;86.20
12839;DHT22;6486;51.034;5.262;2023-05-10T02:13:07;15.30;86.30
12839;DHT22;6486;51.034;5.262;2023-05-10T02:15:34;15.30;86.30
12839;DHT22;6486;51.034;5.262;2023-05-10T02:18:00;15.30;86.20
12839;DHT22;6486;51.034;5.262;2023-05-10T02:20:28;15.20;86.10
12839;DHT22;6486;51.034;5.262;2023-05-10T02:22:56;15.20;86.50
12839;DHT22;6486;51.034;5.262;2023-05-10T02:25:23;15.10;86.30
12839;DHT22;6486;51.034;5.262;2023-05-10T02:27:50;15.10;86.40
12839;DHT22;6486;51.034;5.262;2023-05-10T02:30:18;15.00;86.50
12839;DHT22;6486;51.034;5.262;2023-05-10T02:32:44;15.00;86.60
12839;DHT22;6486;51.034;5.262;2023-05-10T02:35:11;15.00;86.50
12839;DHT22;6486;51.034;5.262;2023-05-10T02:37:38;15.00;86.60
12839;DHT22;6486;51.034;5.262;2023-05-10T02:40:05;15.00;86.60
12839;DHT22;6486;51.034;5.262;2023-05-10T02:42:35;15.00;86.60
12839;DHT22;6486;51.034;5.262;2023-05-10T02:45:03;15.00;86.60
12839;DHT22;6486;51.034;5.262;2023-05-10T02:47:30;15.10;86.60
12839;DHT22;6486;51.034;5.262;2023-05-10T02:49:56;15.10;87.10
12839;DHT22;6486;51.034;5.262;2023-05-10T02:52:28;15.10;86.30
12839;DHT22;6486;51.034;5.262;2023-05-10T02:54:58;15.10;86.30
12839;DHT22;6486;51.034;5.262;2023-05-10T02:57:29;15.20;86.40
12839;DHT22;6486;51.034;5.262;2023-05-10T02:59:57;15.20;86.30
12839;DHT22;6486;51.034;5.262;2023-05-10T03:02:24;15.20;86.10
12839;DHT22;6486;51.034;5.262;2023-05-10T03:04:50;15.20;86.10
12839;DHT22;6486;51.034;5.262;2023-05-10T03:07:16;15.10;86.00
12839;DHT22;6486;51.034;5.262;2023-05-10T03:09:44;15.10;86.10
12839;DHT22;6486;51.034;5.262;2023-05-10T03:14:45;15.10;86.20
12839;DHT22;6486;51.034;5.262;2023-05-10T03:20:47;15.00;86.30
12839;DHT22;6486;51.034;5.262;2023-05-10T03:23:26;15.00;86.30
12839;DHT22;6486;51.034;5.262;2023-05-10T03:25:52;15.00;86.30
12839;DHT22;6486;51.034;5.262;2023-05-10T03:28:20;15.00;86.30
12839;DHT22;6486;51.034;5.262;2023-05-10T03:30:46;15.00;86.40
12839;DHT22;6486;51.034;5.262;2023-05-10T03:33:12;15.00;86.60
12839;DHT22;6486;51.034;5.262;2023-05-10T03:35:38;15.00;86.60
12839;DHT22;6486;51.034;5.262;2023-05-10T03:38:04;14.90;86.60
12839;DHT22;6486;51.034;5.262;2023-05-10T03:40:30;14.90;86.70
12839;DHT22;6486;51.034;5.262;2023-05-10T03:42:57;14.90;86.70
12839;DHT22;6486;51.034;5.262;2023-05-10T03:45:23;14.90;86.80
12839;DHT22;6486;51.034;5.262;2023-05-10T03:47:49;14.90;86.80
12839;DHT22;6486;51.034;5.262;2023-05-10T03:50:14;14.90;86.80
12839;DHT22;6486;51.034;5.262;2023-05-10T03:52:40;14.90;86.70
12839;DHT22;6486;51.034;5.262;2023-05-10T03:55:06;15.00;86.70
12839;DHT22;6486;51.034;5.262;2023-05-10T03:57:33;15.00;86.70
12839;DHT22;6486;51.034;5.262;2023-05-10T03:59:59;15.00;86.70
12839;DHT22;6486;51.034;5.262;2023-05-10T04:02:25;15.00;86.80
12839;DHT22;6486;51.034;5.262;2023-05-10T04:04:50;15.00;86.80
12839;DHT22;6486;51.034;5.262;2023-05-10T04:07:16;15.00;86.80
12839;DHT22;6486;51.034;5.262;2023-05-10T04:09:42;15.00;86.80
12839;DHT22;6486;51.034;5.262;2023-05-10T04:12:07;14.90;86.80
12839;DHT22;6486;51.034;5.262;2023-05-10T04:14:33;14.90;86.80
12839;DHT22;6486;51.034;5.262;2023-05-10T04:16:59;14.90;86.80
12839;DHT22;6486;51.034;5.262;2023-05-10T04:19:31;14.90;86.80
12839;DHT22;6486;51.034;5.262;2023-05-10T04:21:58;14.90;86.70
12839;DHT22;6486;51.034;5.262;2023-05-10T04:24:23;14.90;86.80
12839;DHT22;6486;51.034;5.262;2023-05-10T04:26:49;14.80;86.90
12839;DHT22;6486;51.034;5.262;2023-05-10T04:29:15;14.80;87.00
12839;DHT22;6486;51.034;5.262;2023-05-10T04:31:40;14.80;87.10
12839;DHT22;6486;51.034;5.262;2023-05-10T04:34:06;14.80;87.10
12839;DHT22;6486;51.034;5.262;2023-05-10T04:36:32;14.80;87.10
12839;DHT22;6486;51.034;5.262;2023-05-10T04:38:59;14.70;87.10
12839;DHT22;6486;51.034;5.262;2023-05-10T04:41:24;14.70;87.20
12839;DHT22;6486;51.034;5.262;2023-05-10T04:43:50;14.70;87.20
12839;DHT22;6486;51.034;5.262;2023-05-10T04:46:16;14.70;87.20
12839;DHT22;6486;51.034;5.262;2023-05-10T04:48:42;14.70;87.20
12839;DHT22;6486;51.034;5.262;2023-05-10T04:51:07;14.70;87.30
12839;DHT22;6486;51.034;5.262;2023-05-10T04:53:33;14.80;87.40
12839;DHT22;6486;51.034;5.262;2023-05-10T04:55:59;14.80;87.30
12839;DHT22;6486;51.034;5.262;2023-05-10T04:58:24;14.80;87.20
12839;DHT22;6486;51.034;5.262;2023-05-10T05:00:50;14.80;87.10
12839;DHT22;6486;51.034;5.262;2023-05-10T05:03:16;14.70;87.20
12839;DHT22;6486;51.034;5.262;2023-05-10T05:05:41;14.60;87.30
12839;DHT22;6486;51.034;5.262;2023-05-10T05:08:07;14.60;87.50
12839;DHT22;6486;51.034;5.262;2023-05-10T05:10:32;14.60;87.60
12839;DHT22;6486;51.034;5.262;2023-05-10T05:12:58;14.50;87.70
12839;DHT22;6486;51.034;5.262;2023-05-10T05:15:24;14.50;87.70
12839;DHT22;6486;51.034;5.262;2023-05-10T05:17:49;14.50;87.70
12839;DHT22;6486;51.034;5.262;2023-05-10T05:20:15;14.60;87.80
12839;DHT22;6486;51.034;5.262;2023-05-10T05:22:41;14.50;87.70
12839;DHT22;6486;51.034;5.262;2023-05-10T05:25:07;14.60;87.70
12839;DHT22;6486;51.034;5.262;2023-05-10T05:27:32;14.60;87.70
12839;DHT22;6486;51.034;5.262;2023-05-10T05:29:58;14.60;87.60
12839;DHT22;6486;51.034;5.262;2023-05-10T05:32:25;14.60;87.50
12839;DHT22;6486;51.034;5.262;2023-05-10T05:34:51;14.70;87.40
12839;DHT22;6486;51.034;5.262;2023-05-10T05:37:18;14.80;87.30
12839;DHT22;6486;51.034;5.262;2023-05-10T05:39:45;14.80;87.10
12839;DHT22;6486;51.034;5.262;2023-05-10T05:42:11;14.90;87.10
12839;DHT22;6486;51.034;5.262;2023-05-10T05:44:37;14.90;87.00
12839;DHT22;6486;51.034;5.262;2023-05-10T05:47:03;15.00;87.00
12839;DHT22;6486;51.034;5.262;2023-05-10T05:49:29;15.10;86.90
12839;DHT22;6486;51.034;5.262;2023-05-10T05:51:59;15.20;86.90
12839;DHT22;6486;51.034;5.262;2023-05-10T05:54:25;15.20;86.80
12839;DHT22;6486;51.034;5.262;2023-05-10T05:56:54;15.30;87.30
12839;DHT22;6486;51.034;5.262;2023-05-10T05:59:20;15.30;86.70
12839;DHT22;6486;51.034;5.262;2023-05-10T06:01:45;15.30;86.50
12839;DHT22;6486;51.034;5.262;2023-05-10T06:04:11;15.30;86.60
12839;DHT22;6486;51.034;5.262;2023-05-10T06:06:36;15.40;86.60
12839;DHT22;6486;51.034;5.262;2023-05-10T06:09:02;15.40;86.60
12839;DHT22;6486;51.034;5.262;2023-05-10T06:11:28;15.40;86.50
12839;DHT22;6486;51.034;5.262;2023-05-10T06:13:53;15.40;86.50
12839;DHT22;6486;51.034;5.262;2023-05-10T06:16:19;15.40;86.40
12839;DHT22;6486;51.034;5.262;2023-05-10T06:18:44;15.50;86.40
12839;DHT22;6486;51.034;5.262;2023-05-10T06:21:10;15.50;86.30
12839;DHT22;6486;51.034;5.262;2023-05-10T06:23:36;15.60;86.40
12839;DHT22;6486;51.034;5.262;2023-05-10T06:26:01;15.60;86.40
12839;DHT22;6486;51.034;5.262;2023-05-10T06:28:27;15.60;86.30
12839;DHT22;6486;51.034;5.262;2023-05-10T06:30:53;15.60;86.10
12839;DHT22;6486;51.034;5.262;2023-05-10T06:33:18;15.60;86.10
12839;DHT22;6486;51.034;5.262;2023-05-10T06:35:44;15.60;86.10
12839;DHT22;6486;51.034;5.262;2023-05-10T06:38:10;15.60;86.00
12839;DHT22;6486;51.034;5.262;2023-05-10T06:40:35;15.60;86.00
12839;DHT22;6486;51.034;5.262;2023-05-10T06:43:01;15.60;86.00
12839;DHT22;6486;51.034;5.262;2023-05-10T06:45:27;15.60;86.00
12839;DHT22;6486;51.034;5.262;2023-05-10T06:47:53;15.50;85.90
12839;DHT22;6486;51.034;5.262;2023-05-10T06:50:18;15.50;85.90
12839;DHT22;6486;51.034;5.262;2023-05-10T06:52:44;15.50;85.90
12839;DHT22;6486;51.034;5.262;2023-05-10T06:55:10;15.40;85.90
12839;DHT22;6486;51.034;5.262;2023-05-10T06:57:35;15.40;85.80
12839;DHT22;6486;51.034;5.262;2023-05-10T07:00:02;15.30;85.80
12839;DHT22;6486;51.034;5.262;2023-05-10T07:02:29;15.20;85.90
12839;DHT22;6486;51.034;5.262;2023-05-10T07:04:55;15.10;86.00
12839;DHT22;6486;51.034;5.262;2023-05-10T07:07:20;15.10;86.00
12839;DHT22;6486;51.034;5.262;2023-05-10T07:09:46;15.10;86.10
12839;DHT22;6486;51.034;5.262;2023-05-10T07:12:12;15.10;86.10
12839;DHT22;6486;51.034;5.262;2023-05-10T07:14:37;15.10;86.10
12839;DHT22;6486;51.034;5.262;2023-05-10T07:17:03;15.10;86.10
12839;DHT22;6486;51.034;5.262;2023-05-10T07:19:29;15.10;86.30
12839;DHT22;6486;51.034;5.262;2023-05-10T07:21:55;15.00;86.20
12839;DHT22;6486;51.034;5.262;2023-05-10T07:24:20;15.10;86.30
12839;DHT22;6486;51.034;5.262;2023-05-10T07:26:46;15.10;86.30
12839;DHT22;6486;51.034;5.262;2023-05-10T07:29:12;15.10;86.30
12839;DHT22;6486;51.034;5.262;2023-05-10T07:31:37;15.10;86.30
12839;DHT22;6486;51.034;5.262;2023-05-10T07:34:03;15.10;86.20
12839;DHT22;6486;51.034;5.262;2023-05-10T07:36:29;15.20;86.30
12839;DHT22;6486;51.034;5.262;2023-05-10T07:38:54;15.20;86.10
12839;DHT22;6486;51.034;5.262;2023-05-10T07:41:21;15.20;86.00
12839;DHT22;6486;51.034;5.262;2023-05-10T07:43:47;15.20;86.00
12839;DHT22;6486;51.034;5.262;2023-05-10T07:46:13;15.10;86.00
12839;DHT22;6486;51.034;5.262;2023-05-10T07:48:39;15.10;86.10
12839;DHT22;6486;51.034;5.262;2023-05-10T07:51:04;15.10;86.20
12839;DHT22;6486;51.034;5.262;2023-05-10T07:53:31;15.10;86.30
12839;DHT22;6486;51.034;5.262;2023-05-10T07:55:58;15.00;86.20
12839;DHT22;6486;51.034;5.262;2023-05-10T07:58:24;15.10;86.30
12839;DHT22;6486;51.034;5.262;2023-05-10T08:00:50;15.10;86.30
12839;DHT22;6486;51.034;5.262;2023-05-10T08:03:15;15.10;86.20
12839;DHT22;6486;51.034;5.262;2023-05-10T08:05:41;15.10;86.10
12839;DHT22;6486;51.034;5.262;2023-05-10T08:08:07;15.20;86.20
12839;DHT22;6486;51.034;5.262;2023-05-10T08:10:32;15.30;86.20
12839;DHT22;6486;51.034;5.262;2023-05-10T08:12:58;15.30;86.00
12839;DHT22;6486;51.034;5.262;2023-05-10T08:15:24;15.30;85.90
12839;DHT22;6486;51.034;5.262;2023-05-10T08:17:51;15.30;85.80
12839;DHT22;6486;51.034;5.262;2023-05-10T08:20:17;15.30;85.80
12839;DHT22;6486;51.034;5.262;2023-05-10T08:22:45;15.30;85.90
12839;DHT22;6486;51.034;5.262;2023-05-10T08:25:11;15.30;85.90
12839;DHT22;6486;51.034;5.262;2023-05-10T08:27:36;15.40;86.00
12839;DHT22;6486;51.034;5.262;2023-05-10T08:30:02;15.40;85.90
12839;DHT22;6486;51.034;5.262;2023-05-10T08:32:28;15.50;86.00
12839;DHT22;6486;51.034;5.262;2023-05-10T08:34:54;15.50;85.90
12839;DHT22;6486;51.034;5.262;2023-05-10T08:37:20;15.50;85.70
12839;DHT22;6486;51.034;5.262;2023-05-10T08:39:46;15.60;85.80
12839;DHT22;6486;51.034;5.262;2023-05-10T08:42:16;15.60;85.70
12839;DHT22;6486;51.034;5.262;2023-05-10T08:44:47;15.60;85.60
12839;DHT22;6486;51.034;5.262;2023-05-10T08:47:16;15.70;85.70
12839;DHT22;6486;51.034;5.262;2023-05-10T08:49:44;15.70;85.70
12839;DHT22;6486;51.034;5.262;2023-05-10T08:52:15;15.70;85.80
12839;DHT22;6486;51.034;5.262;2023-05-10T08:54:42;15.70;85.70
12839;DHT22;6486;51.034;5.262;2023-05-10T08:57:08;15.70;85.60
12839;DHT22;6486;51.034;5.262;2023-05-10T08:59:34;15.70;85.50
12839;DHT22;6486;51.034;5.262;2023-05-10T09:02:00;15.70;85.60
12839;DHT22;6486;51.034;5.262;2023-05-10T09:04:27;15.70;85.80
12839;DHT22;6486;51.034;5.262;2023-05-10T09:06:54;15.70;85.70
12839;DHT22;6486;51.034;5.262;2023-05-10T09:09:20;15.70;85.60
12839;DHT22;6486;51.034;5.262;2023-05-10T09:11:47;15.70;85.60
12839;DHT22;6486;51.034;5.262;2023-05-10T09:14:13;15.70;85.60
12839;DHT22;6486;51.034;5.262;2023-05-10T09:16:40;15.70;85.60
12839;DHT22;6486;51.034;5.262;2023-05-10T09:19:07;15.70;85.60
12839;DHT22;6486;51.034;5.262;2023-05-10T09:21:35;15.70;85.70
12839;DHT22;6486;51.034;5.262;2023-05-10T09:24:05;15.60;85.40
12839;DHT22;6486;51.034;5.262;2023-05-10T09:26:31;15.60;85.60
12839;DHT22;6486;51.034;5.262;2023-05-10T09:28:59;15.60;85.60
12839;DHT22;6486;51.034;5.262;2023-05-10T09:31:49;15.60;85.60
12839;DHT22;6486;51.034;5.262;2023-05-10T09:34:29;15.70;85.60
12839;DHT22;6486;51.034;5.262;2023-05-10T09:36:58;15.70;85.40
12839;DHT22;6486;51.034;5.262;2023-05-10T09:41:59;15.80;85.40
12839;DHT22;6486;51.034;5.262;2023-05-10T09:44:26;15.80;85.00
12839;DHT22;6486;51.034;5.262;2023-05-10T09:46:52;15.80;84.90
12839;DHT22;6486;51.034;5.262;2023-05-10T09:49:19;15.70;84.80
12839;DHT22;6486;51.034;5.262;2023-05-10T09:51:46;15.70;84.60
12839;DHT22;6486;51.034;5.262;2023-05-10T09:54:16;15.70;84.30
12839;DHT22;6486;51.034;5.262;2023-05-10T09:56:42;15.60;84.40
12839;DHT22;6486;51.034;5.262;2023-05-10T09:59:10;15.60;84.60
12839;DHT22;6486;51.034;5.262;2023-05-10T10:01:36;15.50;84.60
12839;DHT22;6486;51.034;5.262;2023-05-10T10:04:07;15.60;84.70
12839;DHT22;6486;51.034;5.262;2023-05-10T10:06:37;15.60;84.50
12839;DHT22;6486;51.034;5.262;2023-05-10T10:09:04;15.70;84.50
12839;DHT22;6486;51.034;5.262;2023-05-10T10:11:29;15.70;84.40
12839;DHT22;6486;51.034;5.262;2023-05-10T10:13:55;15.70;84.30
12839;DHT22;6486;51.034;5.262;2023-05-10T10:16:21;15.80;84.30
12839;DHT22;6486;51.034;5.262;2023-05-10T10:18:48;15.90;84.20
12839;DHT22;6486;51.034;5.262;2023-05-10T10:21:15;16.00;84.70
12839;DHT22;6486;51.034;5.262;2023-05-10T10:23:41;16.10;84.10
12839;DHT22;6486;51.034;5.262;2023-05-10T10:26:07;16.20;84.00
12839;DHT22;6486;51.034;5.262;2023-05-10T10:34:11;16.50;83.30
12839;DHT22;6486;51.034;5.262;2023-05-10T10:36:45;16.60;83.20
12839;DHT22;6486;51.034;5.262;2023-05-10T10:39:11;16.80;83.30
12839;DHT22;6486;51.034;5.262;2023-05-10T10:41:40;16.90;83.00
12839;DHT22;6486;51.034;5.262;2023-05-10T10:44:22;17.00;82.90
12839;DHT22;6486;51.034;5.262;2023-05-10T10:49:26;17.30;82.80
12839;DHT22;6486;51.034;5.262;2023-05-10T10:54:39;17.30;82.30
12839;DHT22;6486;51.034;5.262;2023-05-10T10:57:12;17.30;82.00
12839;DHT22;6486;51.034;5.262;2023-05-10T10:59:44;17.40;81.90
12839;DHT22;6486;51.034;5.262;2023-05-10T11:02:34;17.40;81.90
12839;DHT22;6486;51.034;5.262;2023-05-10T11:05:22;17.60;82.00
12839;DHT22;6486;51.034;5.262;2023-05-10T11:07:54;17.60;81.50
12839;DHT22;6486;51.034;5.262;2023-05-10T11:10:23;17.70;81.50
12839;DHT22;6486;51.034;5.262;2023-05-10T11:13:03;17.70;80.80
12839;DHT22;6486;51.034;5.262;2023-05-10T11:15:38;17.70;80.30
12839;DHT22;6486;51.034;5.262;2023-05-10T11:18:23;17.80;80.70
12839;DHT22;6486;51.034;5.262;2023-05-10T11:20:55;17.90;80.70
12839;DHT22;6486;51.034;5.262;2023-05-10T11:23:22;17.90;79.80
12839;DHT22;6486;51.034;5.262;2023-05-10T11:25:48;18.00;79.90
12839;DHT22;6486;51.034;5.262;2023-05-10T11:28:17;17.90;79.20
12839;DHT22;6486;51.034;5.262;2023-05-10T11:30:44;17.90;79.40
12839;DHT22;6486;51.034;5.262;2023-05-10T11:33:15;17.80;79.10
12839;DHT22;6486;51.034;5.262;2023-05-10T11:35:41;17.80;79.80
12839;DHT22;6486;51.034;5.262;2023-05-10T11:38:08;17.70;78.70
12839;DHT22;6486;51.034;5.262;2023-05-10T11:40:35;17.70;78.20
12839;DHT22;6486;51.034;5.262;2023-05-10T11:43:02;17.60;78.00
12839;DHT22;6486;51.034;5.262;2023-05-10T11:45:28;17.60;77.90
12839;DHT22;6486;51.034;5.262;2023-05-10T11:47:58;17.60;77.90
12839;DHT22;6486;51.034;5.262;2023-05-10T11:50:24;17.60;77.30
12839;DHT22;6486;51.034;5.262;2023-05-10T11:52:56;17.50;77.30
12839;DHT22;6486;51.034;5.262;2023-05-10T11:55:23;17.50;77.30
12839;DHT22;6486;51.034;5.262;2023-05-10T11:57:53;17.50;77.30
12839;DHT22;6486;51.034;5.262;2023-05-10T12:00:20;17.60;77.00
12839;DHT22;6486;51.034;5.262;2023-05-10T12:02:46;17.70;77.10
12839;DHT22;6486;51.034;5.262;2023-05-10T12:05:12;17.70;76.60
12839;DHT22;6486;51.034;5.262;2023-05-10T12:07:38;17.80;76.30
12839;DHT22;6486;51.034;5.262;2023-05-10T12:10:07;17.90;75.70
12839;DHT22;6486;51.034;5.262;2023-05-10T12:15:04;18.00;75.00
12839;DHT22;6486;51.034;5.262;2023-05-10T12:17:30;18.00;74.90
12839;DHT22;6486;51.034;5.262;2023-05-10T12:20:12;17.90;74.60
12839;DHT22;6486;51.034;5.262;2023-05-10T12:22:39;17.90;74.60
12839;DHT22;6486;51.034;5.262;2023-05-10T12:25:05;18.00;74.90
12839;DHT22;6486;51.034;5.262;2023-05-10T12:27:34;17.90;74.20
12839;DHT22;6486;51.034;5.262;2023-05-10T12:30:00;17.90;74.10
12839;DHT22;6486;51.034;5.262;2023-05-10T12:32:41;18.00;74.20
12839;DHT22;6486;51.034;5.262;2023-05-10T12:35:07;18.00;74.50
12839;DHT22;6486;51.034;5.262;2023-05-10T12:37:34;18.20;74.70
12839;DHT22;6486;51.034;5.262;2023-05-10T12:40:06;18.30;74.60
12839;DHT22;6486;51.034;5.262;2023-05-10T12:42:32;18.50;74.50
12839;DHT22;6486;51.034;5.262;2023-05-10T12:44:57;18.60;74.00
12839;DHT22;6486;51.034;5.262;2023-05-10T12:47:23;18.60;73.60
12839;DHT22;6486;51.034;5.262;2023-05-10T12:49:49;18.70;73.60
12839;DHT22;6486;51.034;5.262;2023-05-10T12:52:14;18.70;73.20
12839;DHT22;6486;51.034;5.262;2023-05-10T12:54:40;18.80;73.60
12839;DHT22;6486;51.034;5.262;2023-05-10T12:57:06;18.80;73.70
12839;DHT22;6486;51.034;5.262;2023-05-10T12:59:32;18.80;73.90
12839;DHT22;6486;51.034;5.262;2023-05-10T13:01:57;18.80;73.70
12839;DHT22;6486;51.034;5.262;2023-05-10T13:04:23;18.70;73.50
12839;DHT22;6486;51.034;5.262;2023-05-10T13:06:49;18.60;73.10
12839;DHT22;6486;51.034;5.262;2023-05-10T13:09:15;18.50;72.90
12839;DHT22;6486;51.034;5.262;2023-05-10T13:11:41;18.50;73.10
12839;DHT22;6486;51.034;5.262;2023-05-10T13:14:06;18.40;73.20
12839;DHT22;6486;51.034;5.262;2023-05-10T13:16:32;18.30;73.30
12839;DHT22;6486;51.034;5.262;2023-05-10T13:18:58;18.20;73.30
12839;DHT22;6486;51.034;5.262;2023-05-10T13:21:24;18.10;73.40
12839;DHT22;6486;51.034;5.262;2023-05-10T13:23:50;18.10;73.80
12839;DHT22;6486;51.034;5.262;2023-05-10T13:26:16;18.10;73.80
12839;DHT22;6486;51.034;5.262;2023-05-10T13:28:43;18.10;73.80
12839;DHT22;6486;51.034;5.262;2023-05-10T13:31:08;18.10;74.00
12839;DHT22;6486;51.034;5.262;2023-05-10T13:33:34;18.10;74.20
12839;DHT22;6486;51.034;5.262;2023-05-10T13:36:00;18.20;74.20
12839;DHT22;6486;51.034;5.262;2023-05-10T13:38:26;18.20;73.80
12839;DHT22;6486;51.034;5.262;2023-05-10T13:40:51;18.20;74.00
12839;DHT22;6486;51.034;5.262;2023-05-10T13:43:18;18.20;74.10
12839;DHT22;6486;51.034;5.262;2023-05-10T13:45:44;18.20;74.30
12839;DHT22;6486;51.034;5.262;2023-05-10T13:48:10;18.30;74.60
12839;DHT22;6486;51.034;5.262;2023-05-10T13:50:35;18.30;74.70
12839;DHT22;6486;51.034;5.262;2023-05-10T13:53:01;18.30;74.70
12839;DHT22;6486;51.034;5.262;2023-05-10T13:55:27;18.30;74.50
12839;DHT22;6486;51.034;5.262;2023-05-10T13:57:52;18.30;74.70
12839;DHT22;6486;51.034;5.262;2023-05-10T14:00:18;18.30;74.80
12839;DHT22;6486;51.034;5.262;2023-05-10T14:02:44;18.30;75.10
12839;DHT22;6486;51.034;5.262;2023-05-10T14:05:10;18.30;75.10
12839;DHT22;6486;51.034;5.262;2023-05-10T14:07:35;18.30;75.10
12839;DHT22;6486;51.034;5.262;2023-05-10T14:10:01;18.30;75.00
12839;DHT22;6486;51.034;5.262;2023-05-10T14:12:27;18.30;75.00
12839;DHT22;6486;51.034;5.262;2023-05-10T14:14:53;18.30;75.20
12839;DHT22;6486;51.034;5.262;2023-05-10T14:17:18;18.40;75.30
12839;DHT22;6486;51.034;5.262;2023-05-10T14:19:44;18.40;75.20
12839;DHT22;6486;51.034;5.262;2023-05-10T14:22:10;18.40;75.00
12839;DHT22;6486;51.034;5.262;2023-05-10T14:24:36;18.40;75.10
12839;DHT22;6486;51.034;5.262;2023-05-10T14:27:01;18.40;74.90
12839;DHT22;6486;51.034;5.262;2023-05-10T14:29:27;18.50;75.00
12839;DHT22;6486;51.034;5.262;2023-05-10T14:31:53;18.60;75.00
12839;DHT22;6486;51.034;5.262;2023-05-10T14:34:18;18.60;74.90
12839;DHT22;6486;51.034;5.262;2023-05-10T14:36:44;18.70;75.00
12839;DHT22;6486;51.034;5.262;2023-05-10T14:39:09;18.80;75.00
12839;DHT22;6486;51.034;5.262;2023-05-10T14:41:38;18.90;74.40
12839;DHT22;6486;51.034;5.262;2023-05-10T14:44:06;19.00;74.10
12839;DHT22;6486;51.034;5.262;2023-05-10T14:46:31;19.00;73.80
12839;DHT22;6486;51.034;5.262;2023-05-10T14:48:57;19.00;73.30
12839;DHT22;6486;51.034;5.262;2023-05-10T14:51:23;19.00;73.20
12839;DHT22;6486;51.034;5.262;2023-05-10T14:53:48;19.00;72.90
12839;DHT22;6486;51.034;5.262;2023-05-10T14:56:15;19.10;72.80
12839;DHT22;6486;51.034;5.262;2023-05-10T14:58:41;19.20;71.90
12839;DHT22;6486;51.034;5.262;2023-05-10T15:01:06;19.30;71.50
12839;DHT22;6486;51.034;5.262;2023-05-10T15:03:32;19.40;71.40
12839;DHT22;6486;51.034;5.262;2023-05-10T15:05:57;19.50;71.50
12839;DHT22;6486;51.034;5.262;2023-05-10T15:08:24;19.60;71.20
12839;DHT22;6486;51.034;5.262;2023-05-10T15:10:52;19.70;70.50
12839;DHT22;6486;51.034;5.262;2023-05-10T15:13:18;19.80;70.00
12839;DHT22;6486;51.034;5.262;2023-05-10T15:15:43;19.80;70.00
12839;DHT22;6486;51.034;5.262;2023-05-10T15:18:09;19.70;70.00
12839;DHT22;6486;51.034;5.262;2023-05-10T15:20:35;19.70;69.70
12839;DHT22;6486;51.034;5.262;2023-05-10T15:23:01;19.70;70.00
12839;DHT22;6486;51.034;5.262;2023-05-10T15:25:27;19.60;70.10
12839;DHT22;6486;51.034;5.262;2023-05-10T15:27:54;19.70;70.20
12839;DHT22;6486;51.034;5.262;2023-05-10T15:30:20;19.70;70.30
12839;DHT22;6486;51.034;5.262;2023-05-10T15:32:46;19.70;70.10
12839;DHT22;6486;51.034;5.262;2023-05-10T15:35:11;19.80;69.70
12839;DHT22;6486;51.034;5.262;2023-05-10T15:37:37;19.70;68.80
12839;DHT22;6486;51.034;5.262;2023-05-10T15:40:04;19.70;69.20
12839;DHT22;6486;51.034;5.262;2023-05-10T15:42:30;19.70;69.20
12839;DHT22;6486;51.034;5.262;2023-05-10T15:44:57;19.70;68.70
12839;DHT22;6486;51.034;5.262;2023-05-10T15:47:23;19.70;68.80
12839;DHT22;6486;51.034;5.262;2023-05-10T15:49:49;19.80;68.80
12839;DHT22;6486;51.034;5.262;2023-05-10T15:52:14;19.90;68.60
12839;DHT22;6486;51.034;5.262;2023-05-10T15:54:41;19.80;68.20
12839;DHT22;6486;51.034;5.262;2023-05-10T15:57:06;19.80;68.00
12839;DHT22;6486;51.034;5.262;2023-05-10T15:59:32;19.70;68.00
12839;DHT22;6486;51.034;5.262;2023-05-10T16:01:58;19.70;68.30
12839;DHT22;6486;51.034;5.262;2023-05-10T16:04:24;19.60;68.40
12839;DHT22;6486;51.034;5.262;2023-05-10T16:06:50;19.60;68.50
12839;DHT22;6486;51.034;5.262;2023-05-10T16:09:16;19.50;68.60
12839;DHT22;6486;51.034;5.262;2023-05-10T16:11:42;19.50;68.70
12839;DHT22;6486;51.034;5.262;2023-05-10T16:14:08;19.30;68.50
12839;DHT22;6486;51.034;5.262;2023-05-10T16:16:34;19.20;68.70
12839;DHT22;6486;51.034;5.262;2023-05-10T16:19:00;19.10;68.50
12839;DHT22;6486;51.034;5.262;2023-05-10T16:21:29;19.10;68.70